Time,TemperatureF,DewpointF,PressureIn,WindDirection,WindDirectionDegrees,WindSpeedMPH,WindSpeedGustMPH,Humidity,HourlyPrecipIn,Conditions,Clouds,dailyrainin,SoftwareType,DateUTC
2013-05-21 00:00:00,45.0,34.0,-100.00,North,-999,-999.0,-999.0,67,-99.99,,,0.00,,2013-05-21 07:00:00,
2013-05-21 00:52:00,45.0,34.0,-100.00,North,-999,-999.0,-999.0,67,-99.99,,,0.00,,2013-05-21 07:52:00,
2013-05-21 01:00:00,45.0,35.0,-100.00,West,277,0.0,1.0,69,-99.99,,,0.00,,2013-05-21 08:00:00,
2013-05-21 01:52:00,45.0,35.0,-100.00,North,-999,-999.0,-999.0,69,-99.99,,,0.00,,2013-05-21 08:52:00,
2013-05-21 02:00:00,43.0,35.0,-100.00,WSW,255,0.0,1.0,71,-99.99,,,0.00,,2013-05-21 09:00:00,
2013-05-21 02:53:00,43.0,35.0,-100.00,WSW,255,0.0,1.0,71,-99.99,,,0.00,,2013-05-21 09:53:00,
2013-05-21 03:00:00,43.0,34.0,-100.00,WSW,244,0.0,1.0,71,-99.99,,,0.00,,2013-05-21 10:00:00,
2013-05-21 04:00:00,45.0,36.0,-100.00,SSW,194,0.0,1.0,70,-99.99,,,0.00,,2013-05-21 11:00:00,
2013-05-21 05:00:00,45.0,36.0,-100.00,West,269,0.0,1.0,70,-99.99,,,0.00,,2013-05-21 12:00:00,
2013-05-21 06:00:00,43.0,38.0,-100.00,SSW,213,2.0,5.0,84,-99.99,,,0.01,,2013-05-21 13:00:00,
2013-05-21 09:00:00,40.0,40.0,-100.00,SSW,198,2.0,4.0,97,-99.99,,,0.00,,2013-05-21 16:00:00,
2013-05-21 10:00:00,39.0,38.0,-100.00,WSW,238,2.0,5.0,97,-99.99,,,0.00,,2013-05-21 17:00:00,
2013-05-21 10:52:00,39.0,38.0,-100.00,WSW,238,2.0,5.0,97,-99.99,,,0.00,,2013-05-21 17:52:00,
2013-05-21 11:00:00,38.0,36.0,-100.00,WNW,290,2.0,4.0,94,-99.99,,,0.01,,2013-05-21 18:00:00,
2013-05-21 11:52:00,38.0,36.0,-100.00,WNW,290,2.0,4.0,94,-99.99,,,0.01,,2013-05-21 18:52:00,
2013-05-21 12:00:00,37.0,36.0,-100.00,West,265,2.0,5.0,95,-99.99,,,0.01,,2013-05-21 19:00:00,
2013-05-21 12:52:00,37.0,36.0,-100.00,West,265,2.0,5.0,95,-99.99,,,0.01,,2013-05-21 19:52:00,
2013-05-21 13:00:00,39.0,38.0,-100.00,NNW,330,2.0,4.0,94,-99.99,,,0.02,,2013-05-21 20:00:00,
2013-05-21 13:52:00,39.0,38.0,-100.00,NNW,330,2.0,4.0,94,-99.99,,,0.02,,2013-05-21 20:52:00,
2013-05-21 14:00:00,37.0,35.0,-100.00,West,277,3.0,7.0,93,-99.99,,,0.02,,2013-05-21 21:00:00,
2013-05-21 14:54:00,37.0,35.0,-100.00,West,277,3.0,7.0,93,-99.99,,,0.02,,2013-05-21 21:54:00,
2013-05-21 15:00:00,39.0,35.0,-100.00,WSW,247,4.0,8.0,87,-99.99,,,0.01,,2013-05-21 22:00:00,
2013-05-21 15:53:00,39.0,35.0,-100.00,WSW,247,4.0,8.0,87,-99.99,,,0.01,,2013-05-21 22:53:00,
2013-05-21 16:00:00,40.0,34.0,-100.00,SSW,211,4.0,9.0,80,-99.99,,,0.02,,2013-05-21 23:00:00,
2013-05-21 16:52:00,40.0,34.0,-100.00,SSW,211,4.0,9.0,80,-99.99,,,0.02,,2013-05-21 23:52:00,
2013-05-21 17:00:00,42.0,35.0,-100.00,SSW,206,3.0,7.0,76,-99.99,,,0.02,,2013-05-22 00:00:00,
2013-05-21 17:52:00,42.0,35.0,-100.00,SSW,206,3.0,7.0,76,-99.99,,,0.02,,2013-05-22 00:52:00,
2013-05-21 18:00:00,39.0,30.0,-100.00,South,191,4.0,7.0,70,-99.99,,,0.02,,2013-05-22 01:00:00,
2013-05-21 18:52:00,39.0,30.0,-100.00,South,191,4.0,7.0,70,-99.99,,,0.02,,2013-05-22 01:52:00,
2013-05-21 19:00:00,39.0,32.0,-100.00,West,261,3.0,5.0,74,-99.99,,,0.01,,2013-05-22 02:00:00,
2013-05-21 19:52:00,39.0,32.0,-100.00,West,261,3.0,5.0,74,-99.99,,,0.01,,2013-05-22 02:52:00,
2013-05-21 20:00:00,37.0,31.0,-100.00,WSW,255,3.0,6.0,78,-99.99,,,0.01,,2013-05-22 03:00:00,
2013-05-21 20:53:00,37.0,31.0,-100.00,WSW,255,3.0,6.0,78,-99.99,,,0.01,,2013-05-22 03:53:00,
2013-05-21 21:00:00,35.0,30.0,-100.00,West,278,3.0,5.0,81,-99.99,,,0.01,,2013-05-22 04:00:00,
2013-05-21 21:53:00,35.0,30.0,-100.00,West,278,3.0,5.0,81,-99.99,,,0.01,,2013-05-22 04:53:00,
2013-05-21 22:00:00,35.0,31.0,-100.00,West,269,4.0,7.0,85,-99.99,,,0.01,,2013-05-22 05:00:00,
2013-05-21 22:52:00,35.0,31.0,-100.00,West,269,4.0,7.0,85,-99.99,,,0.01,,2013-05-22 05:52:00,
2013-05-21 23:00:00,35.0,30.0,-100.00,WNW,296,4.0,5.0,85,-99.99,,,-99.99,,2013-05-22 06:00:00,
2013-05-21 23:52:00,35.0,30.0,-100.00,WNW,296,4.0,5.0,85,-99.99,,,-99.99,,2013-05-22 06:52:00,